createdAt,value
2023-05-14T00:00:07.764Z,12.56
2023-05-14T00:02:37.673Z,12.61
2023-05-14T00:05:13.078Z,12.62
2023-05-14T00:07:45.571Z,12.61
2023-05-14T00:10:15.391Z,12.59
2023-05-14T00:12:45.226Z,12.60
2023-05-14T00:15:15.240Z,12.61
2023-05-14T00:17:45.425Z,12.65
2023-05-14T00:20:15.617Z,12.61
2023-05-14T00:22:48.050Z,12.51
2023-05-14T00:25:20.166Z,12.53
2023-05-14T00:27:49.989Z,12.52
2023-05-14T00:30:19.921Z,12.52
2023-05-14T00:32:49.793Z,12.58
2023-05-14T00:35:20.744Z,12.62
2023-05-14T00:37:53.203Z,12.53
2023-05-14T00:40:23.830Z,12.53
2023-05-14T00:42:53.904Z,12.55
2023-05-14T00:45:23.868Z,12.53
2023-05-14T00:47:53.866Z,12.52
2023-05-14T00:50:24.517Z,12.48
2023-05-14T00:52:57.211Z,12.52
2023-05-14T00:55:27.177Z,12.53
2023-05-14T00:57:59.299Z,12.60
2023-05-14T01:00:29.226Z,12.60
2023-05-14T01:03:01.628Z,12.60
2023-05-14T01:05:35.059Z,12.60
2023-05-14T01:08:16.286Z,12.63
2023-05-14T01:10:54.276Z,12.63
2023-05-14T01:13:30.032Z,12.66
2023-05-14T01:16:01.612Z,12.71
2023-05-14T01:18:33.161Z,12.65
2023-05-14T01:21:05.005Z,12.65
2023-05-14T01:23:37.478Z,12.61
2023-05-14T01:26:10.908Z,12.65
2023-05-14T01:28:41.419Z,12.65
2023-05-14T01:31:19.913Z,12.70
2023-05-14T01:33:51.599Z,12.71
2023-05-14T01:36:21.717Z,12.77
2023-05-14T01:38:54.932Z,12.82
2023-05-14T01:41:26.147Z,12.87
2023-05-14T01:43:56.258Z,12.86
2023-05-14T01:46:26.130Z,12.84
2023-05-14T01:48:55.945Z,12.78
2023-05-14T01:51:25.818Z,12.75
2023-05-14T01:53:58.258Z,12.78
2023-05-14T01:56:28.262Z,12.79
2023-05-14T01:58:58.617Z,12.74
2023-05-14T02:01:28.658Z,12.75
2023-05-14T02:04:02.453Z,12.74
2023-05-14T02:06:32.494Z,12.72
2023-05-14T02:09:08.695Z,12.67
2023-05-14T02:11:38.600Z,12.73
2023-05-14T02:14:08.551Z,12.71
2023-05-14T02:16:38.398Z,12.66
2023-05-14T02:19:08.436Z,12.63
2023-05-14T02:21:38.386Z,12.56
2023-05-14T02:24:11.039Z,12.55
2023-05-14T02:26:40.897Z,12.53
2023-05-14T02:29:11.007Z,12.54
2023-05-14T02:31:40.872Z,12.57
2023-05-14T02:34:10.722Z,12.62
2023-05-14T02:36:40.524Z,12.59
2023-05-14T02:39:13.012Z,12.62
2023-05-14T02:41:42.831Z,12.67
2023-05-14T02:44:12.681Z,12.63
2023-05-14T02:46:42.521Z,12.66
2023-05-14T02:49:12.419Z,12.65
2023-05-14T02:51:42.221Z,12.63
2023-05-14T02:54:16.589Z,12.63
2023-05-14T02:56:48.001Z,12.65
2023-05-14T02:59:17.841Z,12.64
2023-05-14T03:01:48.107Z,12.64
2023-05-14T03:04:21.371Z,12.65
2023-05-14T03:06:51.398Z,12.66
2023-05-14T03:09:23.806Z,12.67
2023-05-14T03:11:53.819Z,12.66
2023-05-14T03:14:23.641Z,12.65
2023-05-14T03:16:53.455Z,12.67
2023-05-14T03:19:23.323Z,12.67
2023-05-14T03:21:53.173Z,12.70
2023-05-14T03:24:25.592Z,12.72
2023-05-14T03:26:55.448Z,12.74
2023-05-14T03:29:25.246Z,12.76
2023-05-14T03:31:58.202Z,12.81
2023-05-14T03:34:28.104Z,12.84
2023-05-14T03:36:57.991Z,12.80
2023-05-14T03:39:30.466Z,12.75
2023-05-14T03:42:00.556Z,12.80
2023-05-14T03:44:30.366Z,12.82
2023-05-14T03:47:00.205Z,12.80
2023-05-14T03:49:30.091Z,12.81
2023-05-14T03:52:00.389Z,12.78
2023-05-14T03:54:32.921Z,12.80
2023-05-14T03:57:02.844Z,12.80
2023-05-14T03:59:32.956Z,12.81
2023-05-14T04:02:02.915Z,12.81
2023-05-14T04:04:32.897Z,12.81
2023-05-14T04:07:02.806Z,12.84
2023-05-14T04:09:35.308Z,12.74
2023-05-14T04:12:05.189Z,12.75
2023-05-14T04:14:35.026Z,12.72
2023-05-14T04:17:04.872Z,12.71
2023-05-14T04:19:34.723Z,12.70
2023-05-14T04:22:04.540Z,12.70
2023-05-14T04:24:37.772Z,12.70
2023-05-14T04:27:08.216Z,12.73
2023-05-14T04:29:38.025Z,12.76
2023-05-14T04:32:08.796Z,12.71
2023-05-14T04:34:39.483Z,12.74
2023-05-14T04:37:09.345Z,12.76
2023-05-14T04:39:41.919Z,12.81
2023-05-14T04:42:11.757Z,12.83
2023-05-14T04:44:43.176Z,12.88
2023-05-14T04:47:13.017Z,12.89
2023-05-14T04:49:43.582Z,12.82
2023-05-14T04:52:13.576Z,12.75
2023-05-14T04:54:46.110Z,12.73
2023-05-14T04:57:16.000Z,12.77
2023-05-14T04:59:45.876Z,12.86
2023-05-14T05:02:15.727Z,12.89
2023-05-14T05:04:45.692Z,12.84
2023-05-14T05:07:16.270Z,12.83
2023-05-14T05:09:48.718Z,12.91
2023-05-14T05:12:19.684Z,12.93
2023-05-14T05:14:49.543Z,12.96
2023-05-14T05:17:20.927Z,13.02
2023-05-14T05:19:50.759Z,13.10
2023-05-14T05:22:20.662Z,13.19
2023-05-14T05:24:53.208Z,13.28
2023-05-14T05:27:23.486Z,13.34
2023-05-14T05:29:53.420Z,13.42
2023-05-14T05:32:23.460Z,13.49
2023-05-14T05:34:55.027Z,13.61
2023-05-14T05:37:24.877Z,13.73
2023-05-14T05:39:57.322Z,13.87
2023-05-14T05:42:27.668Z,13.98
2023-05-14T05:44:57.767Z,14.12
2023-05-14T05:47:27.616Z,14.21
2023-05-14T05:49:57.544Z,14.33
2023-05-14T05:52:27.401Z,14.43
2023-05-14T05:55:00.604Z,14.51
2023-05-14T05:57:30.693Z,14.61
2023-05-14T06:00:01.218Z,14.70
2023-05-14T06:02:31.141Z,14.85
2023-05-14T06:05:03.665Z,14.89
2023-05-14T06:07:33.489Z,14.98
2023-05-14T06:10:06.609Z,15.07
2023-05-14T06:12:36.467Z,15.10
2023-05-14T06:15:06.748Z,15.13
2023-05-14T06:17:36.628Z,15.10
2023-05-14T06:20:08.180Z,15.10
2023-05-14T06:22:38.004Z,14.97
2023-05-14T06:25:11.706Z,14.93
2023-05-14T06:27:42.479Z,14.90
2023-05-14T06:30:13.741Z,14.84
2023-05-14T06:32:43.722Z,14.70
2023-05-14T06:35:13.734Z,14.57
2023-05-14T06:37:45.120Z,14.52
2023-05-14T06:40:18.535Z,14.45
2023-05-14T06:42:48.319Z,14.35
2023-05-14T06:45:18.326Z,14.33
2023-05-14T06:47:48.216Z,14.25
2023-05-14T06:50:18.180Z,14.20
2023-05-14T06:52:48.382Z,14.13
2023-05-14T06:55:21.025Z,14.04
2023-05-14T06:57:51.156Z,14.01
2023-05-14T07:00:23.226Z,14.10
2023-05-14T07:02:53.326Z,14.10
2023-05-14T07:05:27.737Z,14.17
2023-05-14T07:07:57.572Z,14.31
2023-05-14T07:10:31.138Z,14.44
2023-05-14T07:13:01.001Z,14.55
2023-05-14T07:15:31.077Z,14.59
2023-05-14T07:18:00.942Z,14.65
2023-05-14T07:20:30.842Z,14.61
2023-05-14T07:23:00.690Z,14.71
2023-05-14T07:25:33.135Z,14.86
2023-05-14T07:28:02.963Z,14.97
2023-05-14T07:30:32.795Z,14.97
2023-05-14T07:33:02.688Z,15.11
2023-05-14T07:35:32.572Z,15.25
2023-05-14T07:38:02.526Z,15.32
2023-05-14T07:40:35.003Z,15.40
2023-05-14T07:43:04.880Z,15.41
2023-05-14T07:45:37.907Z,15.56
2023-05-14T07:48:08.175Z,15.62
2023-05-14T07:50:38.261Z,15.72
2023-05-14T07:53:08.230Z,15.83
2023-05-14T07:55:40.690Z,15.98
2023-05-14T07:58:10.686Z,15.99
2023-05-14T08:00:40.465Z,16.06
2023-05-14T08:03:10.339Z,15.92
2023-05-14T08:05:40.449Z,15.68
2023-05-14T08:08:11.082Z,15.66
2023-05-14T08:10:43.592Z,15.71
2023-05-14T08:13:13.473Z,15.58
2023-05-14T08:15:43.273Z,15.49
2023-05-14T08:18:13.188Z,15.48
2023-05-14T08:20:43.047Z,15.46
2023-05-14T08:23:14.702Z,15.46
2023-05-14T08:25:52.493Z,15.47
2023-05-14T08:28:23.383Z,15.48
2023-05-14T08:30:57.670Z,15.45
2023-05-14T08:33:30.262Z,15.43
2023-05-14T08:36:00.755Z,15.49
2023-05-14T08:38:30.603Z,15.67
2023-05-14T08:41:03.651Z,15.80
2023-05-14T08:43:39.464Z,15.91
2023-05-14T08:46:10.268Z,16.02
2023-05-14T08:48:43.752Z,16.09
2023-05-14T08:51:13.818Z,16.02
2023-05-14T08:53:43.819Z,16.04
2023-05-14T08:56:17.848Z,15.97
2023-05-14T08:58:47.825Z,15.98
2023-05-14T09:01:17.755Z,16.07
2023-05-14T09:03:52.142Z,16.13
2023-05-14T09:06:22.497Z,16.10
2023-05-14T09:08:54.160Z,16.16
2023-05-14T09:11:26.835Z,16.36
2023-05-14T09:13:57.086Z,16.55
2023-05-14T09:16:29.173Z,16.63
2023-05-14T09:19:04.789Z,16.62
2023-05-14T09:21:34.949Z,16.56
2023-05-14T09:24:04.761Z,16.65
2023-05-14T09:26:38.321Z,16.76
2023-05-14T09:29:08.186Z,16.95
2023-05-14T09:31:38.032Z,17.08
2023-05-14T09:34:07.927Z,17.10
2023-05-14T09:36:38.415Z,17.12
2023-05-14T09:39:09.527Z,17.25
2023-05-14T09:41:41.970Z,17.34
2023-05-14T09:44:11.816Z,17.43
2023-05-14T09:46:41.685Z,17.55
2023-05-14T09:49:13.124Z,17.70
2023-05-14T09:51:43.009Z,17.76
2023-05-14T09:54:13.133Z,17.74
2023-05-14T09:56:46.488Z,17.87
2023-05-14T09:59:16.360Z,17.81
2023-05-14T10:01:46.886Z,17.72
2023-05-14T10:04:17.820Z,17.77
2023-05-14T10:06:54.211Z,17.83
2023-05-14T10:09:28.102Z,17.81
2023-05-14T10:12:03.931Z,17.73
2023-05-14T10:14:39.117Z,17.70
2023-05-14T10:17:18.380Z,17.78
2023-05-14T10:19:56.907Z,17.86
2023-05-14T10:22:30.506Z,17.93
2023-05-14T10:25:00.463Z,17.98
2023-05-14T10:27:33.065Z,17.94
2023-05-14T10:30:03.021Z,18.02
2023-05-14T10:32:38.110Z,18.07
2023-05-14T10:35:20.777Z,18.09
2023-05-14T10:37:53.746Z,18.11
2023-05-14T10:40:31.240Z,18.09
2023-05-14T10:43:05.685Z,18.09
2023-05-14T10:45:35.648Z,18.18
2023-05-14T10:48:05.656Z,18.35
2023-05-14T10:50:35.766Z,18.37
2023-05-14T10:53:06.208Z,18.49
2023-05-14T10:55:36.381Z,18.51
2023-05-14T10:58:09.376Z,18.58
2023-05-14T11:00:40.051Z,18.67
2023-05-14T11:03:10.782Z,18.78
2023-05-14T11:05:44.161Z,18.92
2023-05-14T11:08:15.866Z,18.94
2023-05-14T11:10:50.368Z,19.01
2023-05-14T11:13:23.280Z,19.05
2023-05-14T11:15:54.165Z,19.13
2023-05-14T11:18:33.262Z,19.21
2023-05-14T11:21:05.644Z,19.22
2023-05-14T11:23:35.617Z,19.32
2023-05-14T11:26:05.585Z,19.41
2023-05-14T11:28:38.863Z,19.49
2023-05-14T11:31:08.950Z,19.58
2023-05-14T11:33:39.015Z,19.69
2023-05-14T11:36:11.077Z,19.76
2023-05-14T11:38:51.706Z,19.86
2023-05-14T11:41:23.535Z,19.93
2023-05-14T11:43:58.411Z,19.94
2023-05-14T11:46:30.273Z,20.03
2023-05-14T11:49:00.155Z,20.01
2023-05-14T11:51:30.013Z,20.03
2023-05-14T11:54:00.051Z,20.10
2023-05-14T11:56:30.231Z,20.07
2023-05-14T11:59:02.836Z,20.05
2023-05-14T12:01:35.199Z,20.09
2023-05-14T12:04:06.970Z,20.06
2023-05-14T12:06:37.042Z,19.98
2023-05-14T12:09:09.124Z,20.02
2023-05-14T12:11:40.051Z,19.96
2023-05-14T12:14:19.282Z,19.94
2023-05-14T12:16:49.782Z,19.95
2023-05-14T12:19:23.782Z,19.93
2023-05-14T12:21:57.009Z,19.85
2023-05-14T12:24:28.780Z,19.87
2023-05-14T12:26:58.636Z,19.83
2023-05-14T12:29:31.297Z,19.84
2023-05-14T12:32:04.863Z,19.81
2023-05-14T12:34:35.958Z,19.83
2023-05-14T12:37:07.474Z,19.84
2023-05-14T12:39:38.174Z,19.91
2023-05-14T12:42:08.412Z,19.80
2023-05-14T12:44:43.467Z,19.74
2023-05-14T12:47:13.622Z,19.65
2023-05-14T12:49:45.054Z,19.54
2023-05-14T12:52:22.754Z,19.50
2023-05-14T12:54:55.856Z,19.55
2023-05-14T12:57:25.673Z,19.39
2023-05-14T12:59:58.487Z,19.34
2023-05-14T13:02:28.309Z,19.42
2023-05-14T13:04:58.156Z,19.44
2023-05-14T13:07:27.994Z,19.34
2023-05-14T13:09:57.801Z,19.20
2023-05-14T13:12:27.589Z,19.03
2023-05-14T13:15:00.056Z,19.01
2023-05-14T13:17:30.027Z,18.97
2023-05-14T13:20:11.276Z,18.97
2023-05-14T13:22:41.316Z,19.03
2023-05-14T13:25:12.327Z,19.03
2023-05-14T13:27:42.137Z,19.01
2023-05-14T13:30:15.247Z,18.97
2023-05-14T13:32:45.045Z,18.94
2023-05-14T13:35:15.598Z,18.93
2023-05-14T13:37:46.229Z,18.95
2023-05-14T13:40:19.200Z,18.97
2023-05-14T13:42:48.968Z,18.93
2023-05-14T13:45:21.626Z,18.86
2023-05-14T13:47:51.844Z,18.85
2023-05-14T13:50:23.206Z,18.86
2023-05-14T13:52:52.996Z,18.90
2023-05-14T13:55:23.161Z,18.96
2023-05-14T13:57:53.709Z,18.93
2023-05-14T14:00:28.946Z,18.90
2023-05-14T14:02:58.831Z,18.85
2023-05-14T14:05:31.973Z,18.83
2023-05-14T14:08:13.153Z,18.83
2023-05-14T14:10:52.455Z,18.87
2023-05-14T14:13:22.996Z,18.80
2023-05-14T14:15:55.634Z,18.88
2023-05-14T14:18:25.580Z,18.92
2023-05-14T14:20:55.503Z,18.93
2023-05-14T14:23:25.308Z,18.82
2023-05-14T14:25:55.131Z,18.65
2023-05-14T14:28:24.948Z,18.54
2023-05-14T14:30:59.732Z,18.40
2023-05-14T14:33:29.674Z,18.36
2023-05-14T14:35:59.496Z,18.38
2023-05-14T14:38:29.467Z,18.40
2023-05-14T14:41:00.665Z,18.38
2023-05-14T14:43:30.567Z,18.37
2023-05-14T14:46:05.591Z,18.36
2023-05-14T14:48:37.929Z,18.37
2023-05-14T14:51:08.769Z,18.46
2023-05-14T14:53:40.578Z,18.37
2023-05-14T14:56:13.662Z,18.36
2023-05-14T14:58:43.457Z,18.26
2023-05-14T15:01:16.131Z,18.17
2023-05-14T15:03:48.699Z,18.04
2023-05-14T15:06:18.511Z,18.06
2023-05-14T15:08:50.656Z,18.00
2023-05-14T15:11:20.686Z,18.04
2023-05-14T15:13:50.498Z,18.00
2023-05-14T15:16:22.889Z,18.02
2023-05-14T15:18:55.107Z,18.05
2023-05-14T15:21:25.008Z,18.01
2023-05-14T15:23:54.812Z,18.00
2023-05-14T15:26:26.497Z,18.06
2023-05-14T15:28:56.449Z,18.06
2023-05-14T15:31:28.958Z,18.12
2023-05-14T15:33:58.808Z,18.11
2023-05-14T15:36:28.788Z,18.13
2023-05-14T15:39:01.136Z,18.17
2023-05-14T15:41:31.497Z,18.08
2023-05-14T15:44:01.476Z,18.00
2023-05-14T15:46:34.176Z,17.90
2023-05-14T15:49:04.081Z,17.82
2023-05-14T15:51:33.942Z,17.79
2023-05-14T15:54:05.372Z,17.81
2023-05-14T15:56:35.237Z,17.81
2023-05-14T15:59:05.132Z,17.73
2023-05-14T16:01:37.566Z,17.69
2023-05-14T16:04:09.168Z,17.67
2023-05-14T16:06:44.394Z,17.72
2023-05-14T16:09:15.051Z,17.75
2023-05-14T16:11:45.264Z,17.65
2023-05-14T16:14:15.152Z,17.60
2023-05-14T16:16:48.469Z,17.46
2023-05-14T16:19:18.479Z,17.36
2023-05-14T16:21:48.421Z,17.24
2023-05-14T16:24:21.176Z,17.18
2023-05-14T16:26:51.749Z,17.01
2023-05-14T16:29:21.581Z,16.84
2023-05-14T16:31:54.150Z,16.65
2023-05-14T16:34:24.064Z,16.49
2023-05-14T16:36:54.695Z,16.34
2023-05-14T16:39:24.555Z,16.30
2023-05-14T16:41:54.369Z,16.24
2023-05-14T16:44:24.262Z,16.19
2023-05-14T16:46:56.918Z,16.08
2023-05-14T16:49:26.889Z,15.97
2023-05-14T16:51:56.834Z,15.86
2023-05-14T16:54:26.935Z,15.89
2023-05-14T16:56:56.862Z,15.76
2023-05-14T16:59:26.763Z,15.66
2023-05-14T17:01:59.802Z,15.57
2023-05-14T17:04:33.719Z,15.52
2023-05-14T17:07:10.187Z,15.50
2023-05-14T17:09:40.340Z,15.47
2023-05-14T17:12:13.073Z,15.47
2023-05-14T17:14:45.629Z,15.36
2023-05-14T17:17:18.093Z,15.25
2023-05-14T17:19:48.553Z,15.20
2023-05-14T17:22:18.445Z,15.23
2023-05-14T17:24:48.313Z,15.17
2023-05-14T17:27:21.272Z,15.08
2023-05-14T17:29:56.500Z,14.97
2023-05-14T17:32:43.278Z,14.88
2023-05-14T17:35:17.373Z,14.88
2023-05-14T17:37:48.992Z,14.90
2023-05-14T17:40:18.928Z,14.93
2023-05-14T17:42:48.904Z,14.91
2023-05-14T17:45:20.954Z,14.90
2023-05-14T17:47:53.655Z,14.79
2023-05-14T17:50:25.139Z,14.77
2023-05-14T17:52:56.722Z,14.75
2023-05-14T17:55:26.843Z,14.71
2023-05-14T18:00:44.086Z,14.67
2023-05-14T18:03:17.788Z,14.66
2023-05-14T18:05:48.630Z,14.65
2023-05-14T18:08:18.576Z,14.63
2023-05-14T18:11:56.818Z,14.62
2023-05-14T18:14:11.093Z,14.60
2023-05-14T18:16:41.584Z,14.54
2023-05-14T18:19:14.449Z,14.51
2023-05-14T18:21:48.765Z,14.50
2023-05-14T18:27:34.010Z,14.43
2023-05-14T18:30:55.250Z,14.43
2023-05-14T18:36:04.596Z,14.31
2023-05-14T18:38:36.061Z,14.26
2023-05-14T18:41:05.950Z,14.21
2023-05-14T18:43:45.948Z,14.13
2023-05-14T18:46:16.003Z,14.02
2023-05-14T18:48:51.196Z,13.90
2023-05-14T18:51:23.703Z,13.84
2023-05-14T18:53:53.552Z,13.82
2023-05-14T18:56:23.383Z,13.86
2023-05-14T18:58:54.419Z,13.88
2023-05-14T19:01:26.039Z,13.84
2023-05-14T19:03:56.657Z,13.75
2023-05-14T19:06:29.384Z,13.67
2023-05-14T19:09:00.825Z,13.56
2023-05-14T19:11:33.709Z,13.46
2023-05-14T19:14:03.558Z,13.36
2023-05-14T19:16:33.517Z,13.36
2023-05-14T19:19:06.628Z,13.35
2023-05-14T19:21:39.510Z,13.41
2023-05-14T19:24:11.622Z,13.39
2023-05-14T19:26:42.233Z,13.40
2023-05-14T19:29:12.121Z,13.42
2023-05-14T19:31:41.975Z,13.42
2023-05-14T19:34:11.872Z,13.44
2023-05-14T19:36:47.915Z,13.42
2023-05-14T19:39:19.353Z,13.41
2023-05-14T19:41:49.152Z,13.35
2023-05-14T19:44:18.965Z,13.35
2023-05-14T19:46:48.916Z,13.34
2023-05-14T19:49:18.773Z,13.27
2023-05-14T19:51:51.217Z,13.20
2023-05-14T19:54:21.041Z,13.19
2023-05-14T19:56:51.183Z,13.25
2023-05-14T19:59:21.102Z,13.26
2023-05-14T20:01:51.151Z,13.23
2023-05-14T20:04:20.945Z,13.26
2023-05-14T20:06:53.682Z,13.31
2023-05-14T20:09:23.555Z,13.34
2023-05-14T20:11:53.392Z,13.31
2023-05-14T20:14:23.174Z,13.28
2023-05-14T20:16:53.349Z,13.27
2023-05-14T20:19:23.809Z,13.29
2023-05-14T20:21:56.494Z,13.32
2023-05-14T20:24:26.337Z,13.32
2023-05-14T20:26:56.925Z,13.27
2023-05-14T20:29:26.856Z,13.20
2023-05-14T20:31:57.149Z,13.18
2023-05-14T20:34:26.975Z,13.19
2023-05-14T20:37:02.070Z,13.25
2023-05-14T20:39:32.544Z,13.34
2023-05-14T20:42:02.360Z,13.39
2023-05-14T20:44:32.224Z,13.34
2023-05-14T20:47:02.106Z,13.30
2023-05-14T20:49:31.986Z,13.26
2023-05-14T20:52:04.597Z,13.20
2023-05-14T20:54:36.329Z,13.17
2023-05-14T20:57:06.299Z,13.21
2023-05-14T20:59:36.209Z,13.25
2023-05-14T21:02:06.430Z,13.28
2023-05-14T21:04:37.061Z,13.37
2023-05-14T21:07:10.577Z,13.41
2023-05-14T21:09:40.592Z,13.48
2023-05-14T21:12:11.551Z,13.53
2023-05-14T21:14:42.295Z,13.54
2023-05-14T21:17:12.212Z,13.45
2023-05-14T21:19:42.170Z,13.35
2023-05-14T21:22:15.232Z,13.34
2023-05-14T21:24:45.229Z,13.29
2023-05-14T21:27:15.206Z,13.29
2023-05-14T21:29:45.176Z,13.25
2023-05-14T21:51:36.193Z,13.05
2023-05-14T21:54:06.130Z,13.05
2023-05-14T21:56:38.358Z,13.02
2023-05-14T21:59:08.352Z,12.96
2023-05-14T22:01:56.039Z,12.96
2023-05-14T22:04:32.262Z,12.96
2023-05-14T22:07:15.041Z,12.97
2023-05-14T22:09:44.981Z,13.02
2023-05-14T22:12:17.040Z,13.01
2023-05-14T22:14:49.906Z,13.06
2023-05-14T22:17:25.706Z,13.07
2023-05-14T22:19:55.619Z,13.09
2023-05-14T22:22:28.624Z,13.11
2023-05-14T22:25:10.775Z,13.16
2023-05-14T22:27:40.644Z,13.24
2023-05-14T22:30:13.187Z,13.25
2023-05-14T22:32:46.307Z,13.26
2023-05-14T22:35:16.254Z,13.21
2023-05-14T22:40:25.656Z,13.08
2023-05-14T22:43:00.927Z,13.09
2023-05-14T22:45:30.856Z,13.13
2023-05-14T22:48:00.806Z,13.20
2023-05-14T22:50:30.763Z,13.29
2023-05-14T22:53:00.588Z,13.28
2023-05-14T22:55:33.302Z,13.29
2023-05-14T22:58:06.548Z,13.32
2023-05-14T23:00:36.773Z,13.31
2023-05-14T23:03:06.977Z,13.36
2023-05-14T23:05:37.035Z,13.38
2023-05-14T23:08:07.368Z,13.42
2023-05-14T23:10:41.428Z,13.46
2023-05-14T23:13:13.510Z,13.52
2023-05-14T23:15:46.137Z,13.59
2023-05-14T23:18:16.161Z,13.60
2023-05-14T23:20:49.845Z,13.58
2023-05-14T23:23:19.787Z,13.57
2023-05-14T23:25:52.573Z,13.52
2023-05-14T23:28:22.420Z,13.48
2023-05-14T23:30:52.363Z,13.49
2023-05-14T23:33:22.247Z,13.52
2023-05-14T23:35:52.355Z,13.55
2023-05-14T23:38:22.274Z,13.53
2023-05-14T23:40:54.782Z,13.47
2023-05-14T23:43:24.647Z,13.42
2023-05-14T23:45:54.509Z,13.45
2023-05-14T23:48:24.413Z,13.37
2023-05-14T23:50:54.279Z,13.32
2023-05-14T23:53:24.898Z,13.30
2023-05-14T23:55:57.372Z,13.29
2023-05-14T23:58:27.326Z,13.32
